Sandestin, Florida
Current Conditions -  °F | °C
As of 3:53 PM on Tuesday 25 Nov 2014 (Local Time) from KDTS Reporting Station
Overcast Overcast  
Wind Chill: 52°   Ceiling: 6500
Heat Index: 52°   Visibility: 10mi
Dew Point: 47°   Wind: 9mph
Humidity: 83%   Direction: 10°N
Pressure: 30.03"   Gusts: NA
Location:  30.3738°N, 86.3602°W
Report Text: KDTS 252153Z AUTO 01008KT 10SM SCT036 BKN065 OVC120 11/08 A3003 RMK AO2 RAE36 SLP169 P0003 T01110083 TSNO
Loading
Personal Weather Stations






























Interactive Weather Map New forecast layout! Learn more

10-Day Weather Forecast

Advertisements
Track Severe Weather on mobile